Time;durP1;ratioP1;P1;durP2;ratioP2;P2;SDS_P1;SDS_P2;PMS_P1;PMS_P2;Temp;Humidity;BMP_temperature;BMP_pressure;BME280_temperature;BME280_humidity;BME280_pressure;Samples;Min_cycle;Max_cycle;Signal;HPM_P1;HPM_P2
2023/04/19 00:01:05;;;;;;;4.15;3.08;;;20.70;57.00;;;;;;10448919;28;20044;-32
2023/04/19 00:06:09;;;;;;;2.97;2.35;;;20.60;57.00;;;;;;10440387;28;20378;-31
2023/04/19 00:11:10;;;;;;;3.10;2.35;;;20.60;57.00;;;;;;10438779;28;20053;-30
2023/04/19 00:16:12;;;;;;;3.00;2.33;;;20.50;57.50;;;;;;10449737;28;20049;-29
2023/04/19 00:21:16;;;;;;;2.47;2.10;;;20.50;57.10;;;;;;10434132;28;20139;-31
2023/04/19 00:26:17;;;;;;;3.70;2.80;;;20.50;57.10;;;;;;10441440;28;20466;-28
2023/04/19 00:31:20;;;;;;;2.95;2.28;;;20.50;57.20;;;;;;10441048;28;20497;-29
2023/04/19 00:36:23;;;;;;;3.38;2.60;;;20.50;57.20;;;;;;10444057;28;20110;-31
2023/04/19 00:41:25;;;;;;;3.55;2.63;;;20.50;57.20;;;;;;10446889;28;20064;-32
2023/04/19 00:46:27;;;;;;;3.08;2.30;;;20.40;57.10;;;;;;10442020;28;20080;-34
2023/04/19 00:51:31;;;;;;;2.42;1.67;;;20.40;57.10;;;;;;10446611;28;20079;-30
2023/04/19 00:56:34;;;;;;;3.40;2.10;;;20.30;57.10;;;;;;10447112;28;20063;-31
2023/04/19 01:01:37;;;;;;;3.85;2.20;;;20.30;57.30;;;;;;10457648;28;20136;-31
2023/04/19 01:06:41;;;;;;;3.50;2.15;;;20.30;57.10;;;;;;10440882;28;20049;-31
2023/04/19 01:11:43;;;;;;;6.47;2.65;;;20.30;57.20;;;;;;10437847;28;20069;-30
2023/04/19 01:16:45;;;;;;;1.95;1.73;;;20.30;57.10;;;;;;10449223;28;20143;-29
2023/04/19 01:21:48;;;;;;;3.85;2.20;;;20.20;57.20;;;;;;10453097;28;20477;-28
2023/04/19 01:26:52;;;;;;;2.40;1.98;;;20.30;57.20;;;;;;10448209;28;20053;-28
2023/04/19 01:31:54;;;;;;;2.45;1.85;;;20.20;57.10;;;;;;10453358;28;20053;-29
2023/04/19 01:36:55;;;;;;;2.10;1.85;;;20.20;57.30;;;;;;10459892;28;20078;-30
2023/04/19 01:41:59;;;;;;;3.45;2.42;;;20.10;57.10;;;;;;10459355;28;20045;-30
2023/04/19 01:47:01;;;;;;;2.85;1.75;;;20.10;57.10;;;;;;10465284;28;20056;-30
2023/04/19 01:52:03;;;;;;;3.22;2.00;;;20.20;57.10;;;;;;10460411;28;20088;-28
2023/04/19 01:57:07;;;;;;;8.05;2.25;;;20.10;57.20;;;;;;10446672;28;20137;-32
2023/04/19 02:02:09;;;;;;;2.60;2.03;;;20.10;57.30;;;;;;10451757;28;20052;-29
2023/04/19 02:07:10;;;;;;;2.83;1.98;;;20.10;57.10;;;;;;10445230;28;20497;-32
2023/04/19 02:12:14;;;;;;;2.28;2.08;;;20.10;57.20;;;;;;10455891;28;20497;-29
2023/04/19 02:17:16;;;;;;;2.75;2.15;;;20.10;57.30;;;;;;10455951;28;20060;-29
2023/04/19 02:22:18;;;;;;;3.33;2.10;;;20.00;57.40;;;;;;10447531;28;20164;-27
2023/04/19 02:27:21;;;;;;;2.33;1.85;;;20.00;57.40;;;;;;10468331;28;20071;-29
2023/04/19 02:32:23;;;;;;;1.98;1.77;;;20.00;57.40;;;;;;10464633;28;20111;-32
2023/04/19 02:37:25;;;;;;;5.78;2.35;;;20.00;57.30;;;;;;10437736;28;20044;-29
2023/04/19 02:42:28;;;;;;;3.60;2.05;;;19.90;57.40;;;;;;10456658;28;20059;-29
2023/04/19 02:47:30;;;;;;;2.58;2.08;;;19.90;57.30;;;;;;10463473;28;20072;-32
2023/04/19 02:52:32;;;;;;;3.03;2.30;;;19.90;57.90;;;;;;10450512;28;20114;-31
2023/04/19 02:57:35;;;;;;;2.75;2.15;;;19.90;57.30;;;;;;10445716;28;20841;-34
2023/04/19 03:02:38;;;;;;;2.22;1.80;;;19.90;57.30;;;;;;10461587;28;20045;-31
2023/04/19 03:07:40;;;;;;;2.60;1.98;;;19.90;57.30;;;;;;10447138;28;20056;-29
2023/04/19 03:12:43;;;;;;;1.95;1.75;;;19.80;57.00;;;;;;10450627;28;20095;-30
2023/04/19 03:17:45;;;;;;;4.43;2.00;;;19.80;57.20;;;;;;10462822;28;20132;-30
2023/04/19 03:22:47;;;;;;;4.60;1.88;;;19.80;57.30;;;;;;10451688;28;20051;-30
2023/04/19 03:27:50;;;;;;;;;;;19.80;57.20;;;;;;10463746;28;20072;-34
2023/04/19 03:32:52;;;;;;;2.05;1.48;;;19.70;57.50;;;;;;10458395;28;19921;-29
2023/04/19 03:37:54;;;;;;;2.28;1.92;;;19.80;57.40;;;;;;10446652;28;20115;-28
2023/04/19 03:42:57;;;;;;;2.60;1.98;;;19.80;57.40;;;;;;10452984;28;20136;-27
2023/04/19 03:47:59;;;;;;;2.40;1.83;;;19.60;57.50;;;;;;10440792;28;20060;-30
2023/04/19 03:53:03;;;;;;;4.65;1.88;;;19.70;57.40;;;;;;10440729;28;20069;-29
2023/04/19 03:58:06;;;;;;;4.32;1.98;;;19.70;57.50;;;;;;10451887;28;20140;-31
2023/04/19 04:03:08;;;;;;;2.65;1.80;;;19.70;57.40;;;;;;10452270;28;20399;-29
2023/04/19 04:08:10;;;;;;;2.30;1.98;;;19.70;57.30;;;;;;10444655;28;20906;-36
2023/04/19 04:13:13;;;;;;;2.65;2.20;;;19.80;57.20;;;;;;10452314;28;20041;-29
2023/04/19 04:18:15;;;;;;;2.13;1.92;;;19.70;57.20;;;;;;10444727;28;20144;-31
2023/04/19 04:23:20;;;;;;;2.42;2.05;;;19.80;56.80;;;;;;10451642;28;20075;-27
2023/04/19 04:28:23;;;;;;;2.47;2.00;;;19.90;56.80;;;;;;10446830;28;20126;-31
2023/04/19 04:33:26;;;;;;;4.75;2.35;;;19.90;56.70;;;;;;10442623;28;20528;-29
2023/04/19 04:38:28;;;;;;;2.97;2.17;;;19.90;56.60;;;;;;10457165;28;20049;-29
2023/04/19 04:43:32;;;;;;;3.33;2.25;;;20.00;56.60;;;;;;10446571;28;20435;-36
2023/04/19 04:48:34;;;;;;;2.33;1.70;;;20.00;56.60;;;;;;10456693;28;20555;-34
2023/04/19 04:53:36;;;;;;;2.10;1.83;;;20.10;56.60;;;;;;10466012;28;20088;-33
2023/04/19 04:58:39;;;;;;;3.38;2.05;;;20.10;56.70;;;;;;10454231;28;20049;-28
2023/04/19 05:03:41;;;;;;;4.53;2.40;;;20.10;56.80;;;;;;10463272;28;20044;-32
2023/04/19 05:08:44;;;;;;;2.53;1.90;;;20.10;57.20;;;;;;10455884;28;20466;-35
2023/04/19 05:13:47;;;;;;;5.07;2.45;;;20.10;56.60;;;;;;10444556;28;20136;-30
2023/04/19 05:18:50;;;;;;;2.88;2.08;;;20.20;56.50;;;;;;10452043;28;20126;-34
2023/04/19 05:23:53;;;;;;;3.65;2.10;;;20.20;56.70;;;;;;10451357;28;20514;-33
2023/04/19 05:28:56;;;;;;;6.22;2.13;;;20.20;56.50;;;;;;10460289;28;20044;-31
2023/04/19 05:33:58;;;;;;;2.80;2.25;;;20.20;56.50;;;;;;10449093;28;20049;-33
2023/04/19 05:39:00;;;;;;;3.75;2.13;;;20.30;57.20;;;;;;10452082;28;20048;-35
2023/04/19 05:44:03;;;;;;;2.15;1.83;;;20.30;56.70;;;;;;10439499;28;20144;-29
2023/04/19 05:49:06;;;;;;;4.47;1.98;;;20.30;56.70;;;;;;10449490;28;20068;-30
2023/04/19 06:00:15;;;;;;;2.50;1.70;;;20.30;57.00;;;;;;10450876;28;20116;-29
2023/04/19 06:05:17;;;;;;;3.10;2.03;;;20.30;56.80;;;;;;10444329;28;20045;-34
2023/04/19 06:10:19;;;;;;;2.80;1.92;;;20.40;56.90;;;;;;10440099;28;20136;-29
2023/04/19 06:15:24;;;;;;;3.10;1.77;;;20.20;57.10;;;;;;10446715;28;20041;-31
2023/04/19 06:20:26;;;;;;;5.13;2.35;;;20.20;57.20;;;;;;10443118;28;20084;-29
2023/04/19 06:25:28;;;;;;;2.95;1.80;;;20.20;57.00;;;;;;10446808;28;20041;-30
2023/04/19 06:30:31;;;;;;;1.95;1.45;;;20.30;57.20;;;;;;10462042;28;20076;-28
2023/04/19 06:35:34;;;;;;;3.47;2.22;;;20.20;57.30;;;;;;10449277;28;20120;-32
2023/04/19 06:40:36;;;;;;;5.13;1.80;;;20.10;56.80;;;;;;10443680;28;20052;-34
2023/04/19 06:45:40;;;;;;;4.80;1.73;;;20.30;57.20;;;;;;10452299;28;20095;-31
2023/04/19 06:50:41;;;;;;;4.18;1.80;;;20.30;57.00;;;;;;10455234;28;20040;-31
2023/04/19 06:55:44;;;;;;;3.58;1.90;;;20.50;56.60;;;;;;10452008;28;20525;-30
2023/04/19 07:00:48;;;;;;;2.50;2.22;;;20.50;56.60;;;;;;10438706;28;20109;-30
2023/04/19 07:05:51;;;;;;;2.40;2.00;;;20.40;56.80;;;;;;10434990;28;20461;-29
2023/04/19 07:10:53;;;;;;;4.53;1.80;;;20.40;56.50;;;;;;10474331;28;20041;-28
2023/04/19 07:15:56;;;;;;;2.65;1.80;;;20.40;56.70;;;;;;10481126;28;20089;-29
2023/04/19 07:20:58;;;;;;;5.63;1.90;;;20.40;56.70;;;;;;10489046;28;20072;-30
2023/04/19 07:26:00;;;;;;;3.22;1.65;;;20.50;56.30;;;;;;10479139;28;20155;-28
2023/04/19 07:31:03;;;;;;;3.38;2.20;;;20.50;56.20;;;;;;10473490;28;21302;-28
2023/04/19 07:36:05;;;;;;;3.90;1.80;;;20.50;56.30;;;;;;10492765;28;20075;-27
2023/04/19 07:41:07;;;;;;;6.00;2.20;;;20.50;56.30;;;;;;10471994;28;20041;-30
2023/04/19 07:46:12;;;;;;;3.45;2.05;;;20.50;56.30;;;;;;10483707;28;20460;-28
2023/04/19 07:51:16;;;;;;;2.45;1.98;;;20.60;55.40;;;;;;10480472;28;20042;-28
2023/04/19 07:56:19;;;;;;;6.15;2.08;;;20.40;56.50;;;;;;10480521;28;20441;-29
2023/04/19 08:01:22;;;;;;;8.32;2.92;;;20.40;56.50;;;;;;10478331;28;20053;-29
2023/04/19 08:06:25;;;;;;;6.00;2.25;;;20.40;54.10;;;;;;10494413;28;20044;-28
2023/04/19 08:11:28;;;;;;;6.22;2.28;;;20.70;55.30;;;;;;10511532;28;20469;-32
2023/04/19 08:16:31;;;;;;;3.10;2.13;;;20.60;55.00;;;;;;10487292;28;20068;-30
2023/04/19 08:21:33;;;;;;;3.40;2.10;;;20.70;55.80;;;;;;10490204;28;20078;-31
2023/04/19 08:26:35;;;;;;;5.03;2.00;;;20.70;54.30;;;;;;10502778;28;20557;-30
2023/04/19 08:31:38;;;;;;;5.22;1.95;;;20.90;55.00;;;;;;10502454;28;20041;-31
2023/04/19 08:36:40;;;;;;;2.83;1.80;;;20.60;54.90;;;;;;10499372;28;20089;-29
2023/04/19 08:41:42;;;;;;;4.68;2.05;;;20.50;55.10;;;;;;10481715;28;20536;-31
2023/04/19 08:46:47;;;;;;;4.15;1.92;;;21.10;51.70;;;;;;10480982;28;20052;-36
2023/04/19 08:51:50;;;;;;;2.97;2.22;;;21.00;54.10;;;;;;10493092;28;20582;-30
2023/04/19 08:56:53;;;;;;;2.67;1.55;;;20.80;54.80;;;;;;10487816;28;20080;-31
2023/04/19 09:01:58;;;;;;;3.53;2.13;;;21.10;53.20;;;;;;10479503;28;20091;-30
2023/04/19 09:06:59;;;;;;;2.55;1.80;;;20.50;55.90;;;;;;10508642;28;20049;-30
2023/04/19 09:12:02;;;;;;;4.20;1.98;;;20.70;55.80;;;;;;10495444;28;20409;-33
2023/04/19 09:17:13;;;;;;;6.43;1.85;;;20.60;54.50;;;;;;10507360;28;20457;-29
2023/04/19 09:22:15;;;;;;;2.17;1.23;;;20.60;52.90;;;;;;10493768;28;20047;-32
2023/04/19 09:27:26;;;;;;;4.80;1.55;;;20.70;55.50;;;;;;10483652;28;20072;-27
2023/04/19 09:32:45;;;;;;;5.00;2.00;;;20.80;55.40;;;;;;10494162;28;20482;-29
2023/04/19 09:37:59;;;;;;;3.50;1.95;;;21.10;51.70;;;;;;10496207;28;20154;-31
2023/04/19 09:43:02;;;;;;;1.63;1.40;;;21.60;52.90;;;;;;10500012;28;20040;-33
2023/04/19 09:48:06;;;;;;;2.92;1.58;;;21.00;54.60;;;;;;10477966;28;20044;-31
2023/04/19 09:53:10;;;;;;;3.58;1.83;;;21.10;54.70;;;;;;10496602;28;20043;-29
2023/04/19 09:58:12;;;;;;;2.55;1.40;;;21.50;52.90;;;;;;10490908;28;20486;-30
2023/04/19 10:03:16;;;;;;;2.95;1.77;;;21.10;52.80;;;;;;10499805;28;20117;-35
2023/04/19 10:08:19;;;;;;;1.80;1.38;;;21.20;52.40;;;;;;10467510;28;20081;-30
2023/04/19 10:13:22;;;;;;;3.95;1.63;;;21.40;53.00;;;;;;10489468;28;20482;-32
2023/04/19 10:18:26;;;;;;;4.93;2.05;;;21.30;54.10;;;;;;10486830;28;20469;-34
2023/04/19 10:23:29;;;;;;;3.42;1.65;;;22.10;46.40;;;;;;10489977;28;20397;-30
2023/04/19 10:28:30;;;;;;;2.90;1.65;;;21.90;51.80;;;;;;10475049;28;20084;-33
2023/04/19 10:33:37;;;;;;;2.85;1.40;;;21.70;51.20;;;;;;10483790;28;20052;-32
2023/04/19 10:38:40;;;;;;;2.30;1.50;;;21.60;51.40;;;;;;10479160;28;20084;-30
2023/04/19 10:43:44;;;;;;;1.95;1.67;;;21.40;53.60;;;;;;10474422;28;20525;-30
2023/04/19 10:48:57;;;;;;;3.45;2.25;;;21.50;52.70;;;;;;10471217;28;20036;-31
2023/04/19 10:54:00;;;;;;;8.68;2.03;;;21.50;53.50;;;;;;10486276;28;20084;-30
2023/04/19 10:59:21;;;;;;;4.10;2.53;;;21.90;51.20;;;;;;10478329;28;20057;-30
2023/04/19 11:04:56;;;;;;;4.90;2.10;;;21.60;52.90;;;;;;10472667;28;20048;-30
2023/04/19 11:09:58;;;;;;;3.90;2.40;;;21.40;52.80;;;;;;10485104;28;20492;-33
2023/04/19 11:15:00;;;;;;;2.95;2.50;;;21.90;51.90;;;;;;10481141;28;20049;-31
2023/04/19 11:20:07;;;;;;;4.05;1.83;;;21.50;53.00;;;;;;10463094;28;20074;-30
2023/04/19 11:25:10;;;;;;;3.55;2.20;;;21.50;53.30;;;;;;10478821;28;20052;-29
2023/04/19 11:30:15;;;;;;;5.53;2.38;;;21.60;52.20;;;;;;10485620;28;20044;-30
2023/04/19 11:35:21;;;;;;;3.20;1.70;;;21.70;52.20;;;;;;10479291;28;20076;-30
2023/04/19 11:40:24;;;;;;;3.25;2.28;;;21.80;50.50;;;;;;10487907;28;20056;-31
2023/04/19 11:45:28;;;;;;;2.75;1.95;;;21.90;52.20;;;;;;10468451;28;20076;-35
2023/04/19 11:50:36;;;;;;;6.75;1.98;;;21.70;52.90;;;;;;10475290;28;20052;-32
2023/04/19 11:55:38;;;;;;;3.28;1.52;;;22.00;49.70;;;;;;10492909;28;20068;-35
2023/04/19 12:00:46;;;;;;;4.93;2.30;;;22.70;46.40;;;;;;10483297;28;20056;-36
2023/04/19 12:06:02;;;;;;;9.05;1.75;;;22.10;52.20;;;;;;10473905;28;20452;-32
2023/04/19 12:11:05;;;;;;;4.28;1.88;;;22.00;52.70;;;;;;10480330;28;20113;-35
2023/04/19 12:16:08;;;;;;;3.30;2.35;;;22.50;50.60;;;;;;10476475;28;20475;-31
2023/04/19 12:21:12;;;;;;;4.45;2.60;;;22.30;50.90;;;;;;10467000;28;20452;-31
2023/04/19 12:26:14;;;;;;;5.10;2.42;;;22.20;52.60;;;;;;10480948;28;20050;-30
2023/04/19 12:31:16;;;;;;;3.50;2.00;;;22.50;48.80;;;;;;10455438;28;20635;-33
2023/04/19 12:36:19;;;;;;;;;;;22.70;50.40;;;;;;10479932;28;20052;-31
2023/04/19 12:41:21;;;;;;;3.55;2.28;;;22.90;49.40;;;;;;10481832;28;19924;-32
2023/04/19 12:46:23;;;;;;;2.72;1.30;;;22.30;53.00;;;;;;10480548;28;20480;-34
2023/04/19 12:51:26;;;;;;;6.50;2.13;;;22.80;50.10;;;;;;10482767;28;20139;-33
2023/04/19 12:56:28;;;;;;;3.17;1.50;;;22.90;48.70;;;;;;10471511;28;20476;-31
2023/04/19 13:01:31;;;;;;;2.92;1.70;;;23.00;48.10;;;;;;10480499;28;20061;-31
2023/04/19 13:06:35;;;;;;;2.67;1.65;;;22.90;49.90;;;;;;10499976;28;20083;-30
2023/04/19 13:11:36;;;;;;;3.60;1.70;;;23.10;50.50;;;;;;10493036;28;20062;-31
2023/04/19 13:16:38;;;;;;;2.38;1.90;;;23.50;46.10;;;;;;10473451;28;20090;-30
2023/04/19 13:21:41;;;;;;;;;;;23.90;45.60;;;;;;10468303;28;20049;-30
2023/04/19 13:26:44;;;;;;;3.05;1.40;;;23.60;49.60;;;;;;10464213;28;19920;-31
2023/04/19 13:31:48;;;;;;;2.05;1.35;;;23.80;47.20;;;;;;10483798;28;20391;-36
2023/04/19 13:36:51;;;;;;;2.63;1.48;;;23.90;50.00;;;;;;10491976;28;20063;-30
2023/04/19 13:41:53;;;;;;;1.45;1.10;;;23.80;50.10;;;;;;10483078;28;20086;-30
2023/04/19 13:46:54;;;;;;;;;;;23.80;49.80;;;;;;10488764;28;20071;-30
2023/04/19 13:51:58;;;;;;;2.00;1.47;;;23.90;50.30;;;;;;10485148;28;20325;-31
2023/04/19 13:57:00;;;;;;;3.53;1.50;;;24.20;48.10;;;;;;10483508;28;20044;-36
2023/04/19 14:02:03;;;;;;;2.78;1.48;;;24.20;49.40;;;;;;10475138;28;20052;-30
2023/04/19 14:07:06;;;;;;;2.65;1.00;;;24.30;48.40;;;;;;10485033;28;20094;-31
2023/04/19 14:12:08;;;;;;;1.85;1.15;;;24.30;50.50;;;;;;10497898;28;20863;-30
2023/04/19 14:17:10;;;;;;;2.72;1.33;;;24.50;48.70;;;;;;10496764;28;20044;-31
2023/04/19 14:22:15;;;;;;;3.15;1.10;;;24.60;50.30;;;;;;10490152;28;20102;-27
2023/04/19 14:27:18;;;;;;;2.60;1.58;;;24.60;49.10;;;;;;10489015;28;20480;-31
2023/04/19 14:32:19;;;;;;;3.63;1.38;;;24.80;48.00;;;;;;10479625;28;20421;-30
2023/04/19 14:37:24;;;;;;;2.35;1.10;;;24.90;49.40;;;;;;10466455;28;20049;-32
2023/04/19 14:42:25;;;;;;;3.70;1.33;;;25.10;48.50;;;;;;10498946;28;20099;-29
2023/04/19 14:47:27;;;;;;;;;;;25.00;51.00;;;;;;10489358;28;20056;-30
2023/04/19 14:52:31;;;;;;;4.35;1.10;;;25.30;50.20;;;;;;10494236;28;20440;-32
2023/04/19 14:57:33;;;;;;;2.58;0.90;;;25.30;47.70;;;;;;10486055;28;20127;-37
2023/04/19 15:02:36;;;;;;;2.15;1.02;;;25.40;48.40;;;;;;10465328;28;20764;-33
2023/04/19 15:07:39;;;;;;;6.10;1.65;;;25.60;47.00;;;;;;10442400;28;20175;-30
2023/04/19 15:12:41;;;;;;;2.05;1.02;;;25.70;50.20;;;;;;10444278;28;20045;-35
2023/04/19 15:17:43;;;;;;;3.55;1.17;;;25.90;50.20;;;;;;10441359;28;20049;-30
2023/04/19 15:22:46;;;;;;;4.13;1.55;;;25.70;48.80;;;;;;10449711;28;20072;-30
2023/04/19 15:27:48;;;;;;;1.73;1.10;;;25.80;52.20;;;;;;10461040;28;20470;-32
2023/04/19 15:32:50;;;;;;;;;;;25.80;48.30;;;;;;10443320;28;20113;-34
2023/04/19 15:37:53;;;;;;;3.70;1.35;;;26.00;49.70;;;;;;10457640;28;19921;-32
2023/04/19 15:42:55;;;;;;;3.95;1.30;;;26.00;48.30;;;;;;10446039;28;20064;-32
2023/04/19 15:47:57;;;;;;;;;;;26.00;55.30;;;;;;10447275;28;20516;-31
2023/04/19 15:53:00;;;;;;;4.30;1.80;;;25.80;47.80;;;;;;10439768;28;20365;-35
2023/04/19 15:58:03;;;;;;;2.75;1.45;;;26.10;50.90;;;;;;10444565;28;20048;-30
2023/04/19 16:03:05;;;;;;;4.20;1.20;;;26.10;48.40;;;;;;10435978;28;20455;-31
2023/04/19 16:08:08;;;;;;;;;;;26.10;49.00;;;;;;10449877;28;20041;-30
2023/04/19 16:13:12;;;;;;;2.83;1.25;;;26.20;47.90;;;;;;10427772;28;19932;-36
2023/04/19 16:18:14;;;;;;;4.18;1.10;;;26.10;47.20;;;;;;10439015;28;20061;-27
2023/04/19 16:23:17;;;;;;;;;;;26.20;46.80;;;;;;10453873;28;20073;-31
2023/04/19 16:28:19;;;;;;;4.90;1.00;;;26.10;46.50;;;;;;10449491;28;19920;-31
2023/04/19 16:33:21;;;;;;;4.25;1.05;;;26.40;49.40;;;;;;10460592;28;20464;-33
2023/04/19 16:38:24;;;;;;;2.63;1.10;;;26.80;47.70;;;;;;10470435;28;20135;-32
2023/04/19 16:43:26;;;;;;;4.57;1.67;;;26.90;50.40;;;;;;10461385;28;20057;-33
2023/04/19 16:48:28;;;;;;;3.53;1.38;;;26.70;47.50;;;;;;10463417;28;20450;-31
2023/04/19 16:53:32;;;;;;;2.63;1.20;;;26.90;49.00;;;;;;10452398;28;20087;-34
2023/04/19 16:58:34;;;;;;;1.77;1.13;;;26.90;47.80;;;;;;10471805;28;20061;-32
2023/04/19 17:03:36;;;;;;;5.60;1.70;;;27.10;53.00;;;;;;10440590;28;20041;-31
2023/04/19 17:08:39;;;;;;;3.08;1.48;;;27.10;49.40;;;;;;10440772;28;20415;-30
2023/04/19 17:13:41;;;;;;;6.18;1.30;;;27.00;47.90;;;;;;10449191;28;20073;-35
2023/04/19 17:18:43;;;;;;;3.90;1.27;;;27.10;49.10;;;;;;10449690;28;20052;-33
2023/04/19 17:23:46;;;;;;;2.80;1.20;;;27.10;66.60;;;;;;10443633;28;20084;-31
2023/04/19 17:28:48;;;;;;;1.83;0.95;;;26.90;48.70;;;;;;10452733;28;20064;-35
2023/04/19 17:33:50;;;;;;;;;;;27.00;48.30;;;;;;10439413;28;20041;-31
2023/04/19 17:38:53;;;;;;;1.23;0.90;;;27.00;49.00;;;;;;10454968;28;19947;-33
2023/04/19 17:43:55;;;;;;;2.17;0.90;;;27.00;50.60;;;;;;10454878;28;20072;-29
2023/04/19 17:48:57;;;;;;;2.95;1.10;;;27.10;50.10;;;;;;10451162;28;20048;-29
2023/04/19 17:54:01;;;;;;;1.63;0.80;;;26.80;48.20;;;;;;10438214;28;20132;-31
2023/04/19 17:59:02;;;;;;;2.88;0.98;;;26.70;49.70;;;;;;10449161;28;20477;-28
2023/04/19 18:04:05;;;;;;;3.58;0.88;;;27.00;48.90;;;;;;10454120;28;20072;-30
2023/04/19 18:09:08;;;;;;;2.63;0.80;;;26.70;48.20;;;;;;10433625;28;20045;-32
2023/04/19 18:14:10;;;;;;;3.17;1.00;;;26.80;54.40;;;;;;10451520;28;20033;-30
2023/04/19 18:19:12;;;;;;;6.50;1.52;;;26.60;48.80;;;;;;10459838;28;20500;-31
2023/04/19 18:24:15;;;;;;;1.00;0.70;;;26.90;48.30;;;;;;10458048;28;20128;-33
2023/04/19 18:29:19;;;;;;;1.92;0.70;;;26.90;48.40;;;;;;10431731;28;20041;-28
2023/04/19 18:34:21;;;;;;;3.60;0.90;;;26.60;47.80;;;;;;10449747;28;20053;-27
2023/04/19 18:39:25;;;;;;;2.45;1.20;;;26.30;48.90;;;;;;10450793;28;20045;-27
2023/04/19 18:44:26;;;;;;;1.85;0.98;;;26.00;50.50;;;;;;10450248;28;20068;-28
2023/04/19 18:49:29;;;;;;;1.63;0.98;;;26.20;49.10;;;;;;10445446;28;21083;-31
2023/04/19 18:54:32;;;;;;;2.97;1.10;;;26.00;47.80;;;;;;10442009;28;20107;-30
2023/04/19 18:59:34;;;;;;;4.03;1.33;;;26.40;50.70;;;;;;10442968;28;20081;-29
2023/04/19 19:04:36;;;;;;;1.55;0.85;;;26.50;48.10;;;;;;10448434;28;20063;-29
2023/04/19 19:09:39;;;;;;;2.67;0.90;;;26.10;49.00;;;;;;10441563;28;20041;-29
2023/04/19 19:14:42;;;;;;;5.82;1.02;;;25.90;47.70;;;;;;10443937;28;20048;-28
2023/04/19 19:19:44;;;;;;;10.30;1.00;;;25.40;48.90;;;;;;10456352;28;20084;-28
2023/04/19 19:24:47;;;;;;;5.72;1.30;;;25.30;48.20;;;;;;10437124;28;20041;-29
2023/04/19 19:29:49;;;;;;;5.70;1.88;;;25.10;48.90;;;;;;10436055;28;20072;-27
2023/04/19 19:34:51;;;;;;;3.65;1.55;;;25.00;48.40;;;;;;10449860;28;20753;-27
2023/04/19 19:39:54;;;;;;;3.03;1.02;;;24.90;48.10;;;;;;10456495;28;20044;-27
2023/04/19 19:44:56;;;;;;;3.20;1.08;;;24.70;48.20;;;;;;10451124;28;20041;-28
2023/04/19 19:49:58;;;;;;;7.05;1.42;;;24.50;51.10;;;;;;10441623;28;20098;-26
2023/04/19 19:55:02;;;;;;;;;;;24.40;48.60;;;;;;10442548;28;20072;-26
2023/04/19 20:00:10;;;;;;;2.80;1.15;;;24.30;48.30;;;;;;10452481;28;20012;-28
2023/04/19 20:05:15;;;;;;;1.98;1.00;;;24.20;48.50;;;;;;10441743;28;20097;-26
2023/04/19 20:10:21;;;;;;;2.13;0.80;;;24.20;48.60;;;;;;10446463;28;20772;-26
2023/04/19 20:15:23;;;;;;;1.58;0.70;;;24.00;48.60;;;;;;10460574;28;20414;-26
2023/04/19 20:20:28;;;;;;;1.45;0.88;;;24.00;48.90;;;;;;10443152;28;20096;-30
2023/04/19 20:25:34;;;;;;;4.25;1.00;;;23.70;49.50;;;;;;10444094;28;20498;-25
2023/04/19 20:30:36;;;;;;;10.13;2.30;;;23.60;49.10;;;;;;10426048;28;20065;-30
2023/04/19 20:35:39;;;;;;;6.03;1.00;;;23.70;49.10;;;;;;10445560;28;20072;-26
2023/04/19 20:40:44;;;;;;;7.22;1.40;;;23.50;48.90;;;;;;10452483;28;20065;-28
2023/04/19 20:45:47;;;;;;;3.65;1.30;;;23.50;49.10;;;;;;10447192;28;20080;-25
2023/04/19 20:50:50;;;;;;;3.15;1.10;;;23.40;48.90;;;;;;10457540;28;20045;-27
2023/04/19 20:55:54;;;;;;;5.32;0.90;;;23.40;49.00;;;;;;10437481;28;20137;-26
2023/04/19 21:00:55;;;;;;;3.40;1.33;;;23.30;49.10;;;;;;10457817;28;20084;-27
2023/04/19 21:05:57;;;;;;;;;;;23.00;49.80;;;;;;10469598;28;20041;-26
2023/04/19 21:11:01;;;;;;;6.70;1.88;;;23.00;50.10;;;;;;10456438;28;19932;-26
2023/04/19 21:16:07;;;;;;;4.10;2.30;;;23.00;50.00;;;;;;10457044;28;20045;-25
2023/04/19 21:21:10;;;;;;;3.38;1.95;;;22.90;50.30;;;;;;10458124;28;20049;-25
2023/04/19 21:26:13;;;;;;;8.32;4.55;;;22.90;48.90;;;;;;10466446;28;20477;-26
2023/04/19 21:31:16;;;;;;;8.73;4.80;;;22.40;51.10;;;;;;10440135;28;20132;-25
2023/04/19 21:36:37;;;;;;;9.43;4.72;;;22.50;51.20;;;;;;10443624;28;20076;-26
2023/04/19 21:47:50;;;;;;;8.05;4.63;;;22.60;50.70;;;;;;10450526;28;20204;-25
2023/04/19 21:52:55;;;;;;;;;;;22.70;50.60;;;;;;10447037;28;20107;-26
2023/04/19 21:57:59;;;;;;;5.35;3.03;;;22.60;50.50;;;;;;10448966;28;20207;-26
2023/04/19 22:03:03;;;;;;;12.23;5.90;;;22.50;50.70;;;;;;10447222;28;20059;-28
2023/04/19 22:08:05;;;;;;;9.90;5.57;;;22.50;51.30;;;;;;10447484;28;20118;-26
2023/04/19 22:13:10;;;;;;;9.45;4.60;;;22.50;50.90;;;;;;10449066;28;20057;-27
2023/04/19 22:18:13;;;;;;;6.97;3.30;;;22.40;50.90;;;;;;10454544;28;20490;-26
2023/04/19 22:23:16;;;;;;;8.27;4.93;;;22.40;50.80;;;;;;10465639;28;20049;-26
2023/04/19 22:28:19;;;;;;;7.53;4.35;;;22.20;51.20;;;;;;10458939;28;20045;-25
2023/04/19 22:33:22;;;;;;;14.85;6.32;;;22.30;50.80;;;;;;10438007;28;20470;-25
2023/04/19 22:38:24;;;;;;;12.77;6.75;;;22.30;50.70;;;;;;10461126;28;20054;-26
2023/04/19 22:43:29;;;;;;;10.60;5.93;;;22.20;50.90;;;;;;10453638;28;20087;-26
2023/04/19 22:48:32;;;;;;;7.30;4.47;;;22.10;51.10;;;;;;10455117;28;20047;-26
2023/04/19 22:53:34;;;;;;;6.35;3.97;;;22.10;50.80;;;;;;10449561;28;20084;-28
2023/04/19 22:58:37;;;;;;;6.25;3.95;;;22.10;50.80;;;;;;10458935;28;20049;-26
2023/04/19 23:03:40;;;;;;;8.52;4.65;;;21.90;51.20;;;;;;10459412;28;20489;-26
2023/04/19 23:08:42;;;;;;;9.65;5.32;;;22.00;50.90;;;;;;10466153;28;20079;-25
2023/04/19 23:13:46;;;;;;;12.25;7.22;;;21.90;50.90;;;;;;10479032;28;20080;-25
2023/04/19 23:18:48;;;;;;;7.78;4.30;;;21.90;51.00;;;;;;10463376;28;20119;-25
2023/04/19 23:23:50;;;;;;;;;;;21.90;50.80;;;;;;10441642;28;20045;-25
2023/04/19 23:28:53;;;;;;;11.73;6.13;;;21.90;50.90;;;;;;10468184;28;20357;-26
2023/04/19 23:33:55;;;;;;;12.07;5.70;;;21.80;50.90;;;;;;10452756;28;20441;-27
2023/04/19 23:38:58;;;;;;;9.43;5.28;;;21.80;51.10;;;;;;10447148;28;20045;-26
2023/04/19 23:44:01;;;;;;;;;;;21.70;51.10;;;;;;10462047;28;20064;-24
2023/04/19 23:49:03;;;;;;;10.45;5.43;;;21.50;51.30;;;;;;10448394;28;19939;-25
2023/04/19 23:54:06;;;;;;;5.20;3.45;;;21.70;51.20;;;;;;10453168;28;20040;-25
2023/04/19 23:59:10;;;;;;;7.82;3.90;;;21.60;51.10;;;;;;10459543;28;20053;-26
